sensor_id;sensor_type;location;lat;lon;timestamp;pressure;altitude;pressure_sealevel;temperature;humidity
13934;BME280;7039;52.168;9.866;2022-09-24T00:02:22;100376.31;;;13.52;82.98
13934;BME280;7039;52.168;9.866;2022-09-24T00:04:50;100371.06;;;13.52;83.06
13934;BME280;7039;52.168;9.866;2022-09-24T00:07:16;100371.38;;;13.60;83.21
13934;BME280;7039;52.168;9.866;2022-09-24T00:09:44;100376.69;;;13.73;82.74
13934;BME280;7039;52.168;9.866;2022-09-24T00:12:10;100367.47;;;13.67;82.40
13934;BME280;7039;52.168;9.866;2022-09-24T00:14:37;100371.59;;;13.57;82.98
13934;BME280;7039;52.168;9.866;2022-09-24T00:17:03;100357.97;;;13.52;82.80
13934;BME280;7039;52.168;9.866;2022-09-24T00:19:30;100358.41;;;13.58;82.86
13934;BME280;7039;52.168;9.866;2022-09-24T00:21:56;100358.09;;;13.63;82.25
13934;BME280;7039;52.168;9.866;2022-09-24T00:24:23;100359.31;;;13.72;81.20
13934;BME280;7039;52.168;9.866;2022-09-24T00:27:23;100359.31;;;13.72;80.53
13934;BME280;7039;52.168;9.866;2022-09-24T00:29:49;100356.31;;;13.64;80.02
13934;BME280;7039;52.168;9.866;2022-09-24T00:32:16;100358.69;;;13.81;76.60
13934;BME280;7039;52.168;9.866;2022-09-24T00:34:42;100358.94;;;13.91;75.48
13934;BME280;7039;52.168;9.866;2022-09-24T00:37:15;100347.78;;;13.87;75.12
13934;BME280;7039;52.168;9.866;2022-09-24T00:39:42;100350.22;;;13.90;75.64
13934;BME280;7039;52.168;9.866;2022-09-24T00:42:10;100355.47;;;14.03;72.57
13934;BME280;7039;52.168;9.866;2022-09-24T00:44:52;100354.34;;;14.07;73.19
13934;BME280;7039;52.168;9.866;2022-09-24T00:47:29;100357.09;;;14.18;74.29
13934;BME280;7039;52.168;9.866;2022-09-24T00:50:14;100350.78;;;14.08;74.81
13934;BME280;7039;52.168;9.866;2022-09-24T00:52:45;100333.72;;;13.75;76.62
13934;BME280;7039;52.168;9.866;2022-09-24T00:55:14;100339.78;;;13.49;76.19
13934;BME280;7039;52.168;9.866;2022-09-24T00:57:42;100337.88;;;13.65;76.36
13934;BME280;7039;52.168;9.866;2022-09-24T01:00:12;100339.16;;;13.72;76.24
13934;BME280;7039;52.168;9.866;2022-09-24T01:02:41;100346.94;;;13.87;76.26
13934;BME280;7039;52.168;9.866;2022-09-24T01:05:09;100338.03;;;13.89;76.11
13934;BME280;7039;52.168;9.866;2022-09-24T01:07:36;100339.75;;;13.90;76.94
13934;BME280;7039;52.168;9.866;2022-09-24T01:10:03;100334.38;;;13.92;77.13
13934;BME280;7039;52.168;9.866;2022-09-24T01:12:35;100337.31;;;13.87;78.08
13934;BME280;7039;52.168;9.866;2022-09-24T01:15:12;100337.66;;;13.95;78.03
13934;BME280;7039;52.168;9.866;2022-09-24T01:17:46;100327.16;;;13.95;78.29
13934;BME280;7039;52.168;9.866;2022-09-24T01:20:29;100324.94;;;13.89;78.72
13934;BME280;7039;52.168;9.866;2022-09-24T01:23:14;100335.56;;;14.00;78.64
13934;BME280;7039;52.168;9.866;2022-09-24T01:25:54;100325.84;;;13.75;79.54
13934;BME280;7039;52.168;9.866;2022-09-24T01:28:32;100333.78;;;13.61;79.84
13934;BME280;7039;52.168;9.866;2022-09-24T01:31:08;100331.47;;;13.69;78.24
13934;BME280;7039;52.168;9.866;2022-09-24T01:33:38;100337.13;;;13.63;76.94
13934;BME280;7039;52.168;9.866;2022-09-24T01:36:05;100334.06;;;13.56;76.80
13934;BME280;7039;52.168;9.866;2022-09-24T01:38:37;100329.91;;;13.40;78.05
13934;BME280;7039;52.168;9.866;2022-09-24T01:41:07;100326.28;;;13.28;79.16
13934;BME280;7039;52.168;9.866;2022-09-24T01:43:35;100330.88;;;13.10;80.49
13934;BME280;7039;52.168;9.866;2022-09-24T01:46:05;100325.56;;;13.11;80.99
13934;BME280;7039;52.168;9.866;2022-09-24T01:48:34;100329.84;;;13.12;81.24
13934;BME280;7039;52.168;9.866;2022-09-24T01:51:05;100323.53;;;13.02;82.00
13934;BME280;7039;52.168;9.866;2022-09-24T01:53:39;100324.69;;;13.25;81.49
13934;BME280;7039;52.168;9.866;2022-09-24T01:56:09;100326.69;;;13.49;80.77
13934;BME280;7039;52.168;9.866;2022-09-24T01:58:43;100327.72;;;13.46;80.19
13934;BME280;7039;52.168;9.866;2022-09-24T02:01:17;100331.41;;;13.44;81.23
13934;BME280;7039;52.168;9.866;2022-09-24T02:03:47;100331.22;;;13.47;79.72
13934;BME280;7039;52.168;9.866;2022-09-24T02:06:19;100324.22;;;13.33;80.45
13934;BME280;7039;52.168;9.866;2022-09-24T02:08:47;100327.28;;;13.40;80.92
13934;BME280;7039;52.168;9.866;2022-09-24T02:11:16;100324.94;;;13.49;80.11
13934;BME280;7039;52.168;9.866;2022-09-24T02:13:49;100321.97;;;13.41;80.53
13934;BME280;7039;52.168;9.866;2022-09-24T02:16:20;100323.28;;;13.34;81.52
13934;BME280;7039;52.168;9.866;2022-09-24T02:18:51;100322.63;;;13.30;82.69
13934;BME280;7039;52.168;9.866;2022-09-24T02:21:22;100316.28;;;13.34;82.03
13934;BME280;7039;52.168;9.866;2022-09-24T02:23:51;100325.41;;;13.42;81.42
13934;BME280;7039;52.168;9.866;2022-09-24T02:26:19;100324.66;;;13.40;81.84
13934;BME280;7039;52.168;9.866;2022-09-24T02:28:46;100334.53;;;13.36;82.96
13934;BME280;7039;52.168;9.866;2022-09-24T02:31:14;100328.00;;;13.29;83.04
13934;BME280;7039;52.168;9.866;2022-09-24T02:33:48;100320.75;;;13.32;83.02
13934;BME280;7039;52.168;9.866;2022-09-24T02:36:33;100321.81;;;13.30;83.32
13934;BME280;7039;52.168;9.866;2022-09-24T02:39:00;100325.53;;;13.40;83.39
13934;BME280;7039;52.168;9.866;2022-09-24T02:41:28;100327.88;;;13.30;83.23
13934;BME280;7039;52.168;9.866;2022-09-24T02:43:56;100323.69;;;13.28;83.98
13934;BME280;7039;52.168;9.866;2022-09-24T02:46:23;100325.09;;;13.33;83.81
13934;BME280;7039;52.168;9.866;2022-09-24T02:48:51;100319.94;;;13.18;84.26
13934;BME280;7039;52.168;9.866;2022-09-24T02:51:17;100321.88;;;13.28;84.22
13934;BME280;7039;52.168;9.866;2022-09-24T02:53:44;100318.81;;;13.36;83.41
13934;BME280;7039;52.168;9.866;2022-09-24T02:56:10;100315.25;;;13.23;84.31
13934;BME280;7039;52.168;9.866;2022-09-24T02:58:37;100318.25;;;13.16;84.52
13934;BME280;7039;52.168;9.866;2022-09-24T03:01:04;100301.91;;;13.13;84.78
13934;BME280;7039;52.168;9.866;2022-09-24T03:03:32;100316.19;;;13.22;85.53
13934;BME280;7039;52.168;9.866;2022-09-24T03:06:00;100314.88;;;13.14;85.25
13934;BME280;7039;52.168;9.866;2022-09-24T03:08:26;100316.13;;;13.09;86.32
13934;BME280;7039;52.168;9.866;2022-09-24T03:10:55;100309.59;;;13.02;87.36
13934;BME280;7039;52.168;9.866;2022-09-24T03:13:22;100311.75;;;12.95;87.67
13934;BME280;7039;52.168;9.866;2022-09-24T03:15:48;100301.75;;;12.87;87.71
13934;BME280;7039;52.168;9.866;2022-09-24T03:18:15;100304.44;;;13.00;87.63
13934;BME280;7039;52.168;9.866;2022-09-24T03:20:41;100303.88;;;13.09;87.10
13934;BME280;7039;52.168;9.866;2022-09-24T03:23:09;100302.66;;;13.01;87.33
13934;BME280;7039;52.168;9.866;2022-09-24T03:25:36;100301.63;;;13.03;87.36
13934;BME280;7039;52.168;9.866;2022-09-24T03:28:02;100304.13;;;13.19;86.74
13934;BME280;7039;52.168;9.866;2022-09-24T03:30:29;100300.50;;;13.22;86.54
13934;BME280;7039;52.168;9.866;2022-09-24T03:33:13;100301.59;;;13.32;86.41
13934;BME280;7039;52.168;9.866;2022-09-24T03:35:40;100295.63;;;13.30;86.56
13934;BME280;7039;52.168;9.866;2022-09-24T03:38:06;100298.03;;;13.33;86.50
13934;BME280;7039;52.168;9.866;2022-09-24T03:40:34;100292.72;;;13.20;86.29
13934;BME280;7039;52.168;9.866;2022-09-24T03:43:01;100296.09;;;13.08;85.39
13934;BME280;7039;52.168;9.866;2022-09-24T03:45:27;100298.56;;;12.96;85.34
13934;BME280;7039;52.168;9.866;2022-09-24T03:47:54;100289.31;;;12.91;86.14
13934;BME280;7039;52.168;9.866;2022-09-24T03:50:20;100288.88;;;12.84;87.23
13934;BME280;7039;52.168;9.866;2022-09-24T03:52:47;100291.47;;;12.84;87.83
13934;BME280;7039;52.168;9.866;2022-09-24T03:55:13;100293.53;;;12.93;87.83
13934;BME280;7039;52.168;9.866;2022-09-24T03:57:41;100282.88;;;12.82;87.87
13934;BME280;7039;52.168;9.866;2022-09-24T04:00:09;100283.09;;;12.79;88.59
13934;BME280;7039;52.168;9.866;2022-09-24T04:02:36;100285.88;;;12.76;88.50
13934;BME280;7039;52.168;9.866;2022-09-24T04:05:05;100284.75;;;12.80;88.29
13934;BME280;7039;52.168;9.866;2022-09-24T04:07:31;100282.81;;;12.69;88.76
13934;BME280;7039;52.168;9.866;2022-09-24T04:09:58;100284.69;;;12.67;88.74
13934;BME280;7039;52.168;9.866;2022-09-24T04:12:24;100283.72;;;12.83;88.45
13934;BME280;7039;52.168;9.866;2022-09-24T04:14:53;100284.75;;;12.94;88.23
13934;BME280;7039;52.168;9.866;2022-09-24T04:17:19;100288.03;;;12.84;88.49
13934;BME280;7039;52.168;9.866;2022-09-24T04:19:46;100283.81;;;12.67;88.72
13934;BME280;7039;52.168;9.866;2022-09-24T04:22:13;100282.34;;;12.63;89.13
13934;BME280;7039;52.168;9.866;2022-09-24T04:24:39;100293.28;;;12.69;89.59
13934;BME280;7039;52.168;9.866;2022-09-24T04:27:05;100287.84;;;12.72;89.07
13934;BME280;7039;52.168;9.866;2022-09-24T04:29:32;100285.81;;;12.63;89.17
13934;BME280;7039;52.168;9.866;2022-09-24T04:32:00;100284.97;;;12.63;89.42
13934;BME280;7039;52.168;9.866;2022-09-24T04:34:27;100284.97;;;12.48;90.13
13934;BME280;7039;52.168;9.866;2022-09-24T04:36:53;100273.28;;;12.40;90.64
13934;BME280;7039;52.168;9.866;2022-09-24T04:39:20;100274.69;;;12.31;90.95
13934;BME280;7039;52.168;9.866;2022-09-24T04:41:50;100272.53;;;12.23;91.13
13934;BME280;7039;52.168;9.866;2022-09-24T04:44:17;100261.59;;;12.17;91.06
13934;BME280;7039;52.168;9.866;2022-09-24T04:46:43;100263.78;;;12.24;91.06
13934;BME280;7039;52.168;9.866;2022-09-24T04:49:11;100266.75;;;12.32;90.70
13934;BME280;7039;52.168;9.866;2022-09-24T04:51:38;100266.09;;;12.43;90.18
13934;BME280;7039;52.168;9.866;2022-09-24T04:54:04;100270.47;;;12.57;88.80
13934;BME280;7039;52.168;9.866;2022-09-24T04:56:31;100280.75;;;12.60;87.98
13934;BME280;7039;52.168;9.866;2022-09-24T04:58:57;100287.13;;;12.56;88.07
13934;BME280;7039;52.168;9.866;2022-09-24T05:01:24;100279.44;;;12.39;89.42
13934;BME280;7039;52.168;9.866;2022-09-24T05:03:50;100274.88;;;12.28;89.90
13934;BME280;7039;52.168;9.866;2022-09-24T05:06:19;100278.16;;;12.31;89.58
13934;BME280;7039;52.168;9.866;2022-09-24T05:08:45;100289.38;;;12.33;89.20
13934;BME280;7039;52.168;9.866;2022-09-24T05:11:11;100287.94;;;12.28;90.08
13934;BME280;7039;52.168;9.866;2022-09-24T05:13:38;100290.28;;;12.32;90.38
13934;BME280;7039;52.168;9.866;2022-09-24T05:16:05;100291.59;;;12.40;90.10
13934;BME280;7039;52.168;9.866;2022-09-24T05:18:31;100287.78;;;12.31;90.46
13934;BME280;7039;52.168;9.866;2022-09-24T05:20:58;100280.66;;;12.33;90.00
13934;BME280;7039;52.168;9.866;2022-09-24T05:23:25;100288.13;;;12.25;90.77
13934;BME280;7039;52.168;9.866;2022-09-24T05:25:52;100288.34;;;12.36;90.28
13934;BME280;7039;52.168;9.866;2022-09-24T05:28:36;100285.91;;;12.47;88.94
13934;BME280;7039;52.168;9.866;2022-09-24T05:31:04;100289.28;;;12.49;88.31
13934;BME280;7039;52.168;9.866;2022-09-24T05:33:31;100298.78;;;12.36;89.66
13934;BME280;7039;52.168;9.866;2022-09-24T05:35:57;100298.78;;;12.36;89.61
13934;BME280;7039;52.168;9.866;2022-09-24T05:38:25;100292.06;;;12.18;91.38
13934;BME280;7039;52.168;9.866;2022-09-24T05:40:51;100294.94;;;12.27;90.94
13934;BME280;7039;52.168;9.866;2022-09-24T05:43:18;100300.47;;;12.37;89.31
13934;BME280;7039;52.168;9.866;2022-09-24T05:45:45;100297.56;;;12.27;89.97
13934;BME280;7039;52.168;9.866;2022-09-24T05:48:13;100300.00;;;12.30;90.45
13934;BME280;7039;52.168;9.866;2022-09-24T05:50:39;100303.56;;;12.44;90.23
13934;BME280;7039;52.168;9.866;2022-09-24T05:53:07;100309.63;;;12.44;90.19
13934;BME280;7039;52.168;9.866;2022-09-24T05:55:35;100305.25;;;12.45;89.59
13934;BME280;7039;52.168;9.866;2022-09-24T05:58:03;100302.44;;;12.48;89.56
13934;BME280;7039;52.168;9.866;2022-09-24T06:00:31;100301.38;;;12.65;88.71
13934;BME280;7039;52.168;9.866;2022-09-24T06:03:02;100309.06;;;12.82;88.29
13934;BME280;7039;52.168;9.866;2022-09-24T06:05:30;100304.06;;;12.92;87.55
13934;BME280;7039;52.168;9.866;2022-09-24T06:08:00;100304.06;;;13.06;87.22
13934;BME280;7039;52.168;9.866;2022-09-24T06:10:26;100304.91;;;13.07;87.02
13934;BME280;7039;52.168;9.866;2022-09-24T06:12:54;100299.28;;;13.13;86.72
13934;BME280;7039;52.168;9.866;2022-09-24T06:15:21;100302.75;;;13.13;86.92
13934;BME280;7039;52.168;9.866;2022-09-24T06:17:48;100305.59;;;13.23;86.54
13934;BME280;7039;52.168;9.866;2022-09-24T06:20:17;100301.81;;;13.29;86.40
13934;BME280;7039;52.168;9.866;2022-09-24T06:22:44;100307.94;;;13.42;84.65
13934;BME280;7039;52.168;9.866;2022-09-24T06:25:10;100305.69;;;13.36;84.68
13934;BME280;7039;52.168;9.866;2022-09-24T06:27:37;100306.25;;;13.27;85.61
13934;BME280;7039;52.168;9.866;2022-09-24T06:30:06;100304.75;;;13.37;85.84
13934;BME280;7039;52.168;9.866;2022-09-24T06:32:33;100306.16;;;13.43;86.32
13934;BME280;7039;52.168;9.866;2022-09-24T06:34:59;100300.00;;;13.56;85.70
13934;BME280;7039;52.168;9.866;2022-09-24T06:37:26;100299.19;;;13.56;85.75
13934;BME280;7039;52.168;9.866;2022-09-24T06:39:52;100302.88;;;13.66;84.61
13934;BME280;7039;52.168;9.866;2022-09-24T06:42:18;100307.06;;;13.69;84.11
13934;BME280;7039;52.168;9.866;2022-09-24T06:44:45;100312.56;;;13.78;84.47
13934;BME280;7039;52.168;9.866;2022-09-24T06:47:13;100308.28;;;13.90;84.28
13934;BME280;7039;52.168;9.866;2022-09-24T06:49:40;100305.13;;;13.98;82.94
13934;BME280;7039;52.168;9.866;2022-09-24T06:52:06;100298.19;;;13.84;82.45
13934;BME280;7039;52.168;9.866;2022-09-24T06:54:33;100304.72;;;14.04;83.59
13934;BME280;7039;52.168;9.866;2022-09-24T06:56:59;100301.78;;;14.09;84.00
13934;BME280;7039;52.168;9.866;2022-09-24T06:59:26;100309.88;;;14.31;83.15
13934;BME280;7039;52.168;9.866;2022-09-24T07:01:52;100308.44;;;14.40;82.91
13934;BME280;7039;52.168;9.866;2022-09-24T07:04:20;100311.03;;;14.53;82.84
13934;BME280;7039;52.168;9.866;2022-09-24T07:06:47;100302.53;;;14.11;83.42
13934;BME280;7039;52.168;9.866;2022-09-24T07:09:31;100294.44;;;13.88;84.37
13934;BME280;7039;52.168;9.866;2022-09-24T07:11:57;100305.34;;;13.95;83.69
13934;BME280;7039;52.168;9.866;2022-09-24T07:14:25;100306.09;;;14.10;83.14
13934;BME280;7039;52.168;9.866;2022-09-24T07:16:52;100304.41;;;14.09;83.85
13934;BME280;7039;52.168;9.866;2022-09-24T07:19:18;100295.94;;;14.31;82.66
13934;BME280;7039;52.168;9.866;2022-09-24T07:21:47;100302.03;;;14.31;82.76
13934;BME280;7039;52.168;9.866;2022-09-24T07:24:14;100304.19;;;14.50;82.59
13934;BME280;7039;52.168;9.866;2022-09-24T07:26:40;100306.03;;;14.63;82.19
13934;BME280;7039;52.168;9.866;2022-09-24T07:29:07;100303.50;;;14.61;82.84
13934;BME280;7039;52.168;9.866;2022-09-24T07:31:33;100302.94;;;14.94;81.41
13934;BME280;7039;52.168;9.866;2022-09-24T07:34:00;100306.00;;;14.75;80.79
13934;BME280;7039;52.168;9.866;2022-09-24T07:36:27;100303.03;;;14.80;80.12
13934;BME280;7039;52.168;9.866;2022-09-24T07:38:56;100314.06;;;14.85;80.24
13934;BME280;7039;52.168;9.866;2022-09-24T07:41:23;100307.13;;;14.97;80.43
13934;BME280;7039;52.168;9.866;2022-09-24T07:43:49;100310.28;;;15.26;79.63
13934;BME280;7039;52.168;9.866;2022-09-24T07:46:16;100320.06;;;15.48;77.11
13934;BME280;7039;52.168;9.866;2022-09-24T07:48:44;100309.75;;;15.69;76.54
13934;BME280;7039;52.168;9.866;2022-09-24T07:51:12;100306.84;;;15.74;75.79
13934;BME280;7039;52.168;9.866;2022-09-24T07:53:38;100315.78;;;16.18;74.30
13934;BME280;7039;52.168;9.866;2022-09-24T07:56:06;100307.19;;;16.27;73.29
13934;BME280;7039;52.168;9.866;2022-09-24T07:58:33;100311.41;;;16.41;72.79
13934;BME280;7039;52.168;9.866;2022-09-24T08:00:59;100311.66;;;16.49;72.98
13934;BME280;7039;52.168;9.866;2022-09-24T08:03:26;100318.84;;;16.69;70.27
13934;BME280;7039;52.168;9.866;2022-09-24T08:05:52;100311.31;;;16.65;70.13
13934;BME280;7039;52.168;9.866;2022-09-24T08:08:21;100321.94;;;16.75;69.78
13934;BME280;7039;52.168;9.866;2022-09-24T08:10:49;100317.13;;;17.14;67.84
13934;BME280;7039;52.168;9.866;2022-09-24T08:13:16;100320.88;;;17.00;67.50
13934;BME280;7039;52.168;9.866;2022-09-24T08:15:43;100323.50;;;17.00;67.15
13934;BME280;7039;52.168;9.866;2022-09-24T08:18:10;100317.28;;;17.01;67.89
13934;BME280;7039;52.168;9.866;2022-09-24T08:20:37;100318.25;;;17.00;68.89
13934;BME280;7039;52.168;9.866;2022-09-24T08:23:05;100325.44;;;16.86;70.19
13934;BME280;7039;52.168;9.866;2022-09-24T08:25:32;100328.53;;;16.80;69.23
13934;BME280;7039;52.168;9.866;2022-09-24T08:28:00;100322.56;;;16.67;69.21
13934;BME280;7039;52.168;9.866;2022-09-24T08:30:28;100334.16;;;16.98;69.50
13934;BME280;7039;52.168;9.866;2022-09-24T08:32:55;100324.69;;;17.18;69.57
13934;BME280;7039;52.168;9.866;2022-09-24T08:35:21;100320.41;;;16.95;69.34
13934;BME280;7039;52.168;9.866;2022-09-24T08:37:48;100328.06;;;16.98;69.19
13934;BME280;7039;52.168;9.866;2022-09-24T08:40:16;100326.38;;;17.08;69.18
13934;BME280;7039;52.168;9.866;2022-09-24T08:42:48;100325.88;;;17.14;68.46
13934;BME280;7039;52.168;9.866;2022-09-24T08:45:16;100325.84;;;17.25;69.20
13934;BME280;7039;52.168;9.866;2022-09-24T08:48:07;100321.19;;;17.29;68.58
13934;BME280;7039;52.168;9.866;2022-09-24T08:50:36;100325.22;;;17.44;68.48
13934;BME280;7039;52.168;9.866;2022-09-24T08:53:11;100312.28;;;17.41;68.85
13934;BME280;7039;52.168;9.866;2022-09-24T08:55:45;100327.13;;;17.74;68.68
13934;BME280;7039;52.168;9.866;2022-09-24T08:58:27;100330.31;;;17.89;65.88
13934;BME280;7039;52.168;9.866;2022-09-24T09:01:02;100339.94;;;18.11;66.41
13934;BME280;7039;52.168;9.866;2022-09-24T09:03:35;100332.13;;;17.89;65.91
13934;BME280;7039;52.168;9.866;2022-09-24T09:06:03;100329.97;;;18.15;65.26
13934;BME280;7039;52.168;9.866;2022-09-24T09:08:41;100330.03;;;17.71;64.41
13934;BME280;7039;52.168;9.866;2022-09-24T09:11:14;100333.56;;;17.61;63.92
13934;BME280;7039;52.168;9.866;2022-09-24T09:13:43;100334.69;;;17.47;64.84
13934;BME280;7039;52.168;9.866;2022-09-24T09:16:20;100340.88;;;17.57;63.92
13934;BME280;7039;52.168;9.866;2022-09-24T09:18:50;100337.00;;;17.29;64.61
13934;BME280;7039;52.168;9.866;2022-09-24T09:21:25;100334.56;;;17.37;64.79
13934;BME280;7039;52.168;9.866;2022-09-24T09:23:55;100341.50;;;17.49;64.96
13934;BME280;7039;52.168;9.866;2022-09-24T09:26:24;100341.91;;;17.66;63.87
13934;BME280;7039;52.168;9.866;2022-09-24T09:28:55;100338.00;;;17.60;65.33
13934;BME280;7039;52.168;9.866;2022-09-24T09:31:30;100336.72;;;17.43;66.06
13934;BME280;7039;52.168;9.866;2022-09-24T09:34:10;100333.72;;;17.37;65.64
13934;BME280;7039;52.168;9.866;2022-09-24T09:36:49;100336.50;;;17.46;66.29
13934;BME280;7039;52.168;9.866;2022-09-24T09:39:33;100337.69;;;17.42;65.79
13934;BME280;7039;52.168;9.866;2022-09-24T09:42:07;100347.53;;;17.72;65.35
13934;BME280;7039;52.168;9.866;2022-09-24T09:44:43;100343.28;;;17.60;66.39
13934;BME280;7039;52.168;9.866;2022-09-24T09:47:19;100344.44;;;17.24;66.27
13934;BME280;7039;52.168;9.866;2022-09-24T09:49:50;100341.59;;;17.04;68.62
13934;BME280;7039;52.168;9.866;2022-09-24T09:52:19;100339.41;;;17.09;68.93
13934;BME280;7039;52.168;9.866;2022-09-24T09:54:46;100351.31;;;17.04;70.31
13934;BME280;7039;52.168;9.866;2022-09-24T09:57:14;100350.81;;;16.76;69.85
13934;BME280;7039;52.168;9.866;2022-09-24T09:59:45;100344.69;;;16.76;70.95
13934;BME280;7039;52.168;9.866;2022-09-24T10:02:21;100350.38;;;16.24;71.47
13934;BME280;7039;52.168;9.866;2022-09-24T10:04:53;100342.84;;;16.20;74.16
13934;BME280;7039;52.168;9.866;2022-09-24T10:07:21;100344.38;;;16.11;73.65
13934;BME280;7039;52.168;9.866;2022-09-24T10:09:58;100342.78;;;15.97;73.85
13934;BME280;7039;52.168;9.866;2022-09-24T10:12:25;100346.81;;;15.90;73.09
13934;BME280;7039;52.168;9.866;2022-09-24T11:38:29;100335.19;;;18.26;66.40
13934;BME280;7039;52.168;9.866;2022-09-24T11:41:19;100329.44;;;18.42;65.73
13934;BME280;7039;52.168;9.866;2022-09-24T13:04:48;100325.53;;;17.62;74.86
13934;BME280;7039;52.168;9.866;2022-09-24T13:07:29;100326.13;;;17.54;76.11
13934;BME280;7039;52.168;9.866;2022-09-24T13:10:22;100320.28;;;17.51;77.13
13934;BME280;7039;52.168;9.866;2022-09-24T13:12:49;100322.63;;;17.65;75.31
13934;BME280;7039;52.168;9.866;2022-09-24T13:56:29;100319.22;;;16.99;80.00
13934;BME280;7039;52.168;9.866;2022-09-24T13:59:16;100320.25;;;17.07;78.98
13934;BME280;7039;52.168;9.866;2022-09-24T14:02:43;100315.22;;;17.16;77.34
13934;BME280;7039;52.168;9.866;2022-09-24T14:09:25;100318.88;;;17.36;79.15
13934;BME280;7039;52.168;9.866;2022-09-24T14:11:55;100322.22;;;17.49;79.51
13934;BME280;7039;52.168;9.866;2022-09-24T14:14:33;100315.50;;;17.45;78.52
13934;BME280;7039;52.168;9.866;2022-09-24T14:28:50;100322.56;;;16.78;82.37
13934;BME280;7039;52.168;9.866;2022-09-24T14:31:17;100315.22;;;16.70;82.76
13934;BME280;7039;52.168;9.866;2022-09-24T14:54:26;100324.00;;;16.02;87.51
13934;BME280;7039;52.168;9.866;2022-09-24T14:56:54;100318.13;;;15.98;87.60
13934;BME280;7039;52.168;9.866;2022-09-24T14:59:28;100311.31;;;15.96;87.08
13934;BME280;7039;52.168;9.866;2022-09-24T15:02:33;100313.22;;;15.94;88.16
13934;BME280;7039;52.168;9.866;2022-09-24T15:09:06;100311.13;;;15.75;91.47
13934;BME280;7039;52.168;9.866;2022-09-24T15:11:35;100316.63;;;15.72;92.39
13934;BME280;7039;52.168;9.866;2022-09-24T15:14:11;100307.78;;;15.73;92.10
13934;BME280;7039;52.168;9.866;2022-09-24T15:16:39;100317.72;;;15.80;91.81
13934;BME280;7039;52.168;9.866;2022-09-24T15:19:15;100312.63;;;15.66;91.10
13934;BME280;7039;52.168;9.866;2022-09-24T15:21:44;100322.38;;;15.77;90.61
13934;BME280;7039;52.168;9.866;2022-09-24T15:24:11;100312.34;;;15.58;93.18
13934;BME280;7039;52.168;9.866;2022-09-24T15:26:44;100312.94;;;15.61;93.65
13934;BME280;7039;52.168;9.866;2022-09-24T15:29:17;100312.94;;;15.61;90.89
13934;BME280;7039;52.168;9.866;2022-09-24T15:31:45;100317.44;;;15.48;91.54
13934;BME280;7039;52.168;9.866;2022-09-24T15:34:11;100311.44;;;15.46;92.41
13934;BME280;7039;52.168;9.866;2022-09-24T15:36:37;100320.28;;;15.45;92.53
13934;BME280;7039;52.168;9.866;2022-09-24T15:39:04;100315.28;;;15.42;92.82
13934;BME280;7039;52.168;9.866;2022-09-24T15:41:32;100315.81;;;15.34;93.61
13934;BME280;7039;52.168;9.866;2022-09-24T15:43:58;100310.78;;;15.31;92.92
13934;BME280;7039;52.168;9.866;2022-09-24T15:46:25;100319.41;;;15.33;92.70
13934;BME280;7039;52.168;9.866;2022-09-24T15:48:52;100311.72;;;15.30;92.63
13934;BME280;7039;52.168;9.866;2022-09-24T15:51:20;100312.34;;;15.34;93.04
13934;BME280;7039;52.168;9.866;2022-09-24T15:53:47;100314.47;;;15.29;92.93
13934;BME280;7039;52.168;9.866;2022-09-24T15:56:14;100317.44;;;15.24;93.57
13934;BME280;7039;52.168;9.866;2022-09-24T15:58:42;100311.63;;;15.32;93.05
13934;BME280;7039;52.168;9.866;2022-09-24T16:01:13;100317.22;;;15.27;93.17
13934;BME280;7039;52.168;9.866;2022-09-24T16:03:41;100316.78;;;15.33;92.70
13934;BME280;7039;52.168;9.866;2022-09-24T16:06:09;100316.81;;;15.20;92.74
13934;BME280;7039;52.168;9.866;2022-09-24T16:08:36;100312.22;;;15.11;93.13
13934;BME280;7039;52.168;9.866;2022-09-24T16:11:02;100323.34;;;15.15;93.22
13934;BME280;7039;52.168;9.866;2022-09-24T16:13:30;100314.34;;;15.06;92.94
13934;BME280;7039;52.168;9.866;2022-09-24T16:15:58;100308.56;;;15.01;93.29
13934;BME280;7039;52.168;9.866;2022-09-24T16:18:24;100320.81;;;15.13;93.03
13934;BME280;7039;52.168;9.866;2022-09-24T16:20:51;100320.09;;;15.11;92.17
13934;BME280;7039;52.168;9.866;2022-09-24T16:23:18;100324.53;;;15.11;92.73
13934;BME280;7039;52.168;9.866;2022-09-24T16:25:53;100324.63;;;14.96;92.70
13934;BME280;7039;52.168;9.866;2022-09-24T16:28:19;100324.53;;;14.98;93.41
13934;BME280;7039;52.168;9.866;2022-09-24T16:30:46;100331.69;;;14.96;94.30
13934;BME280;7039;52.168;9.866;2022-09-24T16:33:14;100323.59;;;14.99;93.42
13934;BME280;7039;52.168;9.866;2022-09-24T16:35:40;100337.78;;;14.96;93.50
13934;BME280;7039;52.168;9.866;2022-09-24T16:38:07;100332.50;;;14.96;92.49
13934;BME280;7039;52.168;9.866;2022-09-24T16:40:33;100331.59;;;14.97;93.69
13934;BME280;7039;52.168;9.866;2022-09-24T16:43:00;100335.59;;;14.90;92.68
13934;BME280;7039;52.168;9.866;2022-09-24T16:45:26;100323.84;;;14.83;93.25
13934;BME280;7039;52.168;9.866;2022-09-24T16:47:53;100332.44;;;14.85;94.01
13934;BME280;7039;52.168;9.866;2022-09-24T16:50:21;100331.59;;;14.85;94.52
13934;BME280;7039;52.168;9.866;2022-09-24T16:52:47;100341.28;;;14.84;92.84
13934;BME280;7039;52.168;9.866;2022-09-24T16:55:14;100334.03;;;14.62;94.26
13934;BME280;7039;52.168;9.866;2022-09-24T16:57:42;100333.81;;;14.52;95.20
13934;BME280;7039;52.168;9.866;2022-09-24T17:00:09;100334.47;;;14.56;94.90
13934;BME280;7039;52.168;9.866;2022-09-24T17:02:36;100341.41;;;14.57;95.60
13934;BME280;7039;52.168;9.866;2022-09-24T17:05:03;100343.28;;;14.55;96.75
13934;BME280;7039;52.168;9.866;2022-09-24T17:07:31;100338.22;;;14.52;95.93
13934;BME280;7039;52.168;9.866;2022-09-24T17:09:58;100336.84;;;14.46;96.55
13934;BME280;7039;52.168;9.866;2022-09-24T17:12:41;100342.31;;;14.43;96.70
13934;BME280;7039;52.168;9.866;2022-09-24T17:15:08;100339.16;;;14.38;96.61
13934;BME280;7039;52.168;9.866;2022-09-24T17:17:35;100347.13;;;14.36;98.13
13934;BME280;7039;52.168;9.866;2022-09-24T17:20:02;100345.47;;;14.35;97.48